Terminal Aerodrome Forecast
Issued by NWS Pendleton, OR

Home | Current Version | Previous Version | Text Only | Print | Product List | Glossary On
Versions: 1 2 3 4 5 6 7 8 9 10 11 12
000
FTUS46 KPDT 162300
TAFPDT
TAF
KPDT 162337Z 1700/1724 34006KT P6SM SKC
     FM170500 15006KT P6SM SCT200
     FM170900 14005KT P6SM FEW150 BKN200
     FM171600 32008KT P6SM SCT200
     FM172100 30008KT P6SM OVC200=

USA.gov is the U.S. government's official web portal to all federal, state and local government web resources and services.